createdAt,value
2022-08-02T00:00:56.145Z,19.63
2022-08-02T00:03:23.720Z,19.54
2022-08-02T00:05:53.186Z,19.52
2022-08-02T00:08:21.329Z,19.47
2022-08-02T00:10:48.107Z,19.50
2022-08-02T00:13:15.080Z,19.47
2022-08-02T00:15:41.846Z,19.47
2022-08-02T00:18:08.583Z,19.44
2022-08-02T00:20:35.212Z,19.41
2022-08-02T00:23:01.852Z,19.39
2022-08-02T00:25:28.591Z,19.37
2022-08-02T00:27:55.242Z,19.33
2022-08-02T00:30:22.083Z,19.33
2022-08-02T00:32:48.783Z,19.34
2022-08-02T00:35:15.691Z,19.29
2022-08-02T00:37:42.685Z,19.24
2022-08-02T00:40:10.967Z,19.22
2022-08-02T00:42:38.760Z,19.12
2022-08-02T00:45:06.039Z,19.11
2022-08-02T00:47:32.939Z,19.09
2022-08-02T00:49:59.837Z,19.10
2022-08-02T00:52:26.541Z,19.10
2022-08-02T00:54:53.216Z,19.10
2022-08-02T00:57:20.033Z,19.10
2022-08-02T00:59:46.606Z,19.09
2022-08-02T01:02:13.565Z,19.15
2022-08-02T01:04:40.589Z,19.15
2022-08-02T01:07:13.170Z,19.18
2022-08-02T01:09:44.989Z,19.20
2022-08-02T01:12:13.208Z,19.22
2022-08-02T01:14:46.707Z,19.21
2022-08-02T01:17:46.721Z,19.18
2022-08-02T01:21:12.089Z,19.23
2022-08-02T01:24:32.305Z,19.23
2022-08-02T01:27:24.459Z,19.26
2022-08-02T01:29:56.663Z,19.29
2022-08-02T01:32:31.710Z,19.25
2022-08-02T01:35:11.805Z,19.24
2022-08-02T01:37:44.602Z,19.25
2022-08-02T01:40:22.807Z,19.22
2022-08-02T01:42:54.140Z,19.27
2022-08-02T01:45:24.926Z,19.18
2022-08-02T01:47:54.024Z,19.18
2022-08-02T01:50:25.645Z,19.19
2022-08-02T01:52:56.872Z,19.21
2022-08-02T01:55:34.990Z,19.19
2022-08-02T01:58:22.781Z,19.17
2022-08-02T02:00:50.275Z,19.22
2022-08-02T02:03:22.139Z,19.23
2022-08-02T02:05:50.159Z,19.27
2022-08-02T02:08:27.291Z,19.28
2022-08-02T02:10:56.116Z,19.28
2022-08-02T02:13:33.211Z,19.17
2022-08-02T02:16:04.873Z,19.15
2022-08-02T02:18:38.792Z,19.07
2022-08-02T02:21:05.467Z,19.04
2022-08-02T02:23:33.384Z,19.00
2022-08-02T02:26:05.223Z,19.01
2022-08-02T02:28:35.200Z,19.00
2022-08-02T02:31:12.167Z,19.02
2022-08-02T02:33:58.574Z,18.94
2022-08-02T02:36:26.674Z,18.89
2022-08-02T02:38:57.248Z,18.80
2022-08-02T02:41:26.979Z,18.68
2022-08-02T02:43:58.619Z,18.63
2022-08-02T02:46:27.283Z,18.62
2022-08-02T02:48:55.230Z,18.67
2022-08-02T02:51:25.333Z,18.74
2022-08-02T02:54:33.738Z,18.88
2022-08-02T02:56:42.565Z,18.91
2022-08-02T02:59:12.907Z,18.99
2022-08-02T03:01:55.651Z,18.99
2022-08-02T03:04:27.121Z,19.06
2022-08-02T03:06:54.002Z,19.08
2022-08-02T03:09:20.965Z,19.10
2022-08-02T03:11:48.578Z,19.15
2022-08-02T03:14:16.041Z,19.16
2022-08-02T03:16:48.098Z,19.12
2022-08-02T03:19:16.115Z,19.11
2022-08-02T03:21:43.792Z,19.18
2022-08-02T03:24:11.051Z,19.18
2022-08-02T03:26:37.804Z,19.07
2022-08-02T03:29:10.233Z,19.03
2022-08-02T03:31:40.981Z,18.99
2022-08-02T03:34:08.019Z,18.98
2022-08-02T03:36:36.371Z,18.98
2022-08-02T03:39:05.215Z,19.01
2022-08-02T03:41:33.214Z,19.06
2022-08-02T03:44:01.455Z,19.15
2022-08-02T03:46:28.771Z,19.18
2022-08-02T03:48:56.773Z,19.13
2022-08-02T03:51:23.604Z,19.17
2022-08-02T03:53:50.669Z,19.15
2022-08-02T03:56:17.693Z,19.15
2022-08-02T03:58:49.117Z,19.14
2022-08-02T04:01:16.512Z,19.14
2022-08-02T04:03:43.481Z,19.18
2022-08-02T04:06:10.194Z,19.18
2022-08-02T04:08:38.716Z,19.16
2022-08-02T04:11:24.557Z,19.17
2022-08-02T04:13:51.949Z,19.28
2022-08-02T04:16:29.123Z,19.26
2022-08-02T04:19:03.058Z,19.16
2022-08-02T04:21:51.181Z,19.12
2022-08-02T04:24:25.306Z,19.19
2022-08-02T04:27:06.670Z,19.19
2022-08-02T04:29:47.091Z,19.13
2022-08-02T04:32:15.417Z,19.17
2022-08-02T04:34:54.260Z,19.19
2022-08-02T04:37:31.007Z,19.15
2022-08-02T04:39:57.720Z,19.20
2022-08-02T04:42:26.255Z,19.19
2022-08-02T04:44:53.998Z,19.20
2022-08-02T04:47:34.699Z,19.14
2022-08-02T04:50:09.618Z,19.13
2022-08-02T04:52:36.343Z,19.16
2022-08-02T04:55:03.137Z,19.19
2022-08-02T04:57:52.634Z,19.22
2022-08-02T05:00:19.997Z,19.18
2022-08-02T05:02:47.224Z,19.23
2022-08-02T05:05:14.493Z,19.29
2022-08-02T05:07:41.405Z,19.36
2022-08-02T05:10:08.474Z,19.44
2022-08-02T05:12:35.227Z,19.50
2022-08-02T05:15:02.125Z,19.58
2022-08-02T05:17:28.824Z,19.65
2022-08-02T05:19:55.541Z,19.71
2022-08-02T05:22:22.586Z,19.70
2022-08-02T05:24:49.287Z,19.62
2022-08-02T05:27:21.565Z,19.61
2022-08-02T05:29:53.043Z,19.59
2022-08-02T05:32:23.770Z,19.56
2022-08-02T05:34:52.056Z,19.56
2022-08-02T05:37:19.036Z,19.54
2022-08-02T05:39:55.549Z,19.49
2022-08-02T05:42:23.320Z,19.50
2022-08-02T05:44:50.109Z,19.28
2022-08-02T05:47:16.816Z,19.29
2022-08-02T05:49:43.595Z,19.24
2022-08-02T05:52:18.547Z,19.28
2022-08-02T05:55:13.248Z,19.22
2022-08-02T05:58:21.520Z,19.16
2022-08-02T06:00:50.235Z,19.11
2022-08-02T06:03:31.804Z,19.04
2022-08-02T06:06:17.741Z,19.01
2022-08-02T06:08:48.408Z,18.99
2022-08-02T06:11:17.818Z,19.01
2022-08-02T06:13:46.066Z,19.01
2022-08-02T06:16:14.853Z,18.94
2022-08-02T06:18:43.298Z,18.93
2022-08-02T06:22:33.596Z,19.02
2022-08-02T06:23:59.503Z,19.11
2022-08-02T06:26:29.730Z,19.17
2022-08-02T06:28:58.669Z,19.27
2022-08-02T06:31:25.841Z,19.37
2022-08-02T06:33:53.072Z,19.45
2022-08-02T06:36:30.262Z,19.48
2022-08-02T06:39:37.012Z,19.59
2022-08-02T06:42:12.131Z,19.66
2022-08-02T06:44:49.634Z,19.76
2022-08-02T06:47:18.925Z,19.88
2022-08-02T06:49:52.243Z,19.98
2022-08-02T06:52:30.066Z,20.08
2022-08-02T06:55:01.334Z,20.16
2022-08-02T06:57:29.071Z,20.23
2022-08-02T06:59:56.394Z,20.24
2022-08-02T07:02:23.207Z,20.34
2022-08-02T07:04:49.987Z,20.34
2022-08-02T07:07:16.874Z,20.44
2022-08-02T07:09:56.291Z,20.50
2022-08-02T07:12:29.106Z,20.55
2022-08-02T07:14:55.807Z,20.59
2022-08-02T07:17:22.519Z,20.63
2022-08-02T07:19:49.247Z,20.55
2022-08-02T07:22:18.597Z,20.50
2022-08-02T07:24:45.455Z,20.43
2022-08-02T07:27:13.120Z,20.46
2022-08-02T07:29:46.191Z,20.45
2022-08-02T07:32:24.671Z,20.53
2022-08-02T07:34:53.412Z,20.53
2022-08-02T07:37:53.051Z,20.60
2022-08-02T07:40:20.115Z,20.60
2022-08-02T07:42:52.046Z,20.65
2022-08-02T07:45:19.858Z,20.72
2022-08-02T07:47:46.927Z,20.76
2022-08-02T07:50:16.479Z,20.87
2022-08-02T07:52:44.653Z,20.83
2022-08-02T07:55:13.159Z,20.88
2022-08-02T07:57:45.848Z,20.92
2022-08-02T08:00:15.064Z,20.91
2022-08-02T08:02:42.318Z,21.13
2022-08-02T08:05:09.364Z,21.19
2022-08-02T08:07:36.316Z,21.19
2022-08-02T08:10:04.598Z,21.26
2022-08-02T08:12:31.362Z,21.34
2022-08-02T08:14:58.211Z,21.44
2022-08-02T08:17:25.237Z,21.55
2022-08-02T08:19:53.046Z,21.64
2022-08-02T08:22:20.947Z,21.82
2022-08-02T08:24:48.482Z,21.86
2022-08-02T08:27:15.988Z,21.88
2022-08-02T08:29:43.404Z,21.99
2022-08-02T08:32:16.338Z,22.08
2022-08-02T08:34:46.086Z,22.38
2022-08-02T08:37:16.557Z,22.51
2022-08-02T08:39:58.523Z,22.64
2022-08-02T08:42:30.663Z,22.69
2022-08-02T08:44:58.873Z,22.69
2022-08-02T08:47:34.741Z,22.85
2022-08-02T08:50:25.185Z,22.90
2022-08-02T08:53:06.337Z,23.00
2022-08-02T08:55:34.648Z,22.95
2022-08-02T08:58:03.149Z,22.80
2022-08-02T09:00:32.323Z,22.95
2022-08-02T09:03:02.181Z,22.97
2022-08-02T09:05:28.905Z,23.03
2022-08-02T09:07:55.621Z,23.14
2022-08-02T09:10:43.221Z,22.92
2022-08-02T09:13:38.128Z,22.75
2022-08-02T09:16:12.614Z,22.67
2022-08-02T09:18:45.505Z,22.65
2022-08-02T09:21:14.765Z,22.72
2022-08-02T09:23:44.496Z,22.90
2022-08-02T09:26:19.164Z,23.18
2022-08-02T09:28:50.181Z,23.29
2022-08-02T09:31:21.888Z,23.27
2022-08-02T09:33:59.692Z,23.16
2022-08-02T09:36:28.267Z,23.32
2022-08-02T09:39:04.251Z,23.53
2022-08-02T09:41:36.838Z,23.72
2022-08-02T09:44:06.913Z,23.73
2022-08-02T09:46:45.290Z,23.75
2022-08-02T09:49:17.021Z,23.80
2022-08-02T09:51:52.034Z,23.81
2022-08-02T09:54:21.132Z,23.99
2022-08-02T09:56:53.761Z,24.14
2022-08-02T09:59:24.605Z,24.45
2022-08-02T10:01:58.923Z,24.69
2022-08-02T10:04:31.739Z,24.93
2022-08-02T10:07:04.561Z,25.02
2022-08-02T10:09:32.396Z,25.05
2022-08-02T10:11:59.857Z,24.79
2022-08-02T10:14:27.863Z,24.85
2022-08-02T10:16:57.080Z,25.03
2022-08-02T10:20:00.718Z,25.07
2022-08-02T10:22:14.141Z,25.09
2022-08-02T10:24:47.662Z,25.19
2022-08-02T10:27:20.407Z,25.35
2022-08-02T10:29:54.039Z,25.26
2022-08-02T10:32:37.640Z,25.15
2022-08-02T10:35:19.421Z,25.30
2022-08-02T10:38:03.485Z,25.18
2022-08-02T10:40:47.992Z,24.91
2022-08-02T10:43:54.211Z,24.99
2022-08-02T10:46:38.638Z,25.14
2022-08-02T10:49:39.035Z,25.30
2022-08-02T10:52:07.776Z,25.42
2022-08-02T10:54:56.392Z,25.47
2022-08-02T10:57:35.054Z,25.72
2022-08-02T11:00:12.397Z,26.03
2022-08-02T11:02:44.959Z,26.03
2022-08-02T11:05:15.156Z,25.94
2022-08-02T11:07:49.377Z,25.86
2022-08-02T11:10:36.643Z,25.53
2022-08-02T11:13:14.665Z,25.28
2022-08-02T11:16:11.490Z,24.92
2022-08-02T11:19:06.800Z,24.95
2022-08-02T11:21:35.049Z,25.18
2022-08-02T11:24:29.052Z,25.11
2022-08-02T11:26:57.443Z,25.25
2022-08-02T11:29:32.864Z,25.36
2022-08-02T11:32:07.100Z,25.18
2022-08-02T11:34:37.569Z,25.11
2022-08-02T11:37:05.326Z,25.09
2022-08-02T11:39:32.498Z,25.30
2022-08-02T11:42:00.853Z,25.24
2022-08-02T11:44:29.710Z,25.30
2022-08-02T11:47:00.955Z,25.36
2022-08-02T11:49:29.216Z,25.19
2022-08-02T11:52:05.253Z,24.98
2022-08-02T11:54:40.171Z,25.02
2022-08-02T11:57:24.772Z,25.15
2022-08-02T11:59:53.589Z,25.35
2022-08-02T12:02:22.842Z,25.38
2022-08-02T12:04:58.442Z,25.53
2022-08-02T12:07:45.553Z,25.58
2022-08-02T12:10:19.341Z,25.44
2022-08-02T12:12:54.530Z,25.46
2022-08-02T12:15:37.429Z,25.61
2022-08-02T12:18:28.589Z,25.76
2022-08-02T12:20:55.433Z,25.66
2022-08-02T12:23:22.143Z,25.63
2022-08-02T12:26:05.134Z,25.93
2022-08-02T12:28:35.493Z,26.14
2022-08-02T12:31:02.507Z,26.10
2022-08-02T12:33:44.411Z,26.14
2022-08-02T12:36:29.960Z,26.21
2022-08-02T12:38:58.652Z,26.41
2022-08-02T12:41:31.336Z,26.37
2022-08-02T12:43:59.592Z,26.47
2022-08-02T12:46:26.743Z,26.46
2022-08-02T12:49:16.065Z,26.52
2022-08-02T12:51:54.821Z,26.75
2022-08-02T12:54:32.703Z,27.00
2022-08-02T12:57:17.187Z,26.93
2022-08-02T12:59:50.951Z,26.87
2022-08-02T13:02:18.573Z,26.74
2022-08-02T13:04:49.681Z,26.77
2022-08-02T13:07:18.213Z,26.72
2022-08-02T13:09:46.486Z,26.76
2022-08-02T13:12:13.414Z,26.86
2022-08-02T13:14:42.208Z,26.88
2022-08-02T13:17:10.113Z,26.65
2022-08-02T13:19:38.329Z,26.53
2022-08-02T13:22:05.627Z,26.59
2022-08-02T13:24:40.877Z,26.71
2022-08-02T13:27:20.779Z,26.84
2022-08-02T13:29:48.992Z,26.92
2022-08-02T13:32:16.465Z,26.92
2022-08-02T13:34:43.559Z,26.86
2022-08-02T13:37:10.501Z,26.86
2022-08-02T13:39:37.277Z,26.58
2022-08-02T13:42:04.159Z,26.39
2022-08-02T13:44:33.262Z,26.23
2022-08-02T13:47:00.978Z,26.13
2022-08-02T13:49:49.590Z,26.04
2022-08-02T13:52:14.748Z,26.00
2022-08-02T13:54:41.755Z,25.86
2022-08-02T13:57:08.411Z,25.68
2022-08-02T13:59:57.559Z,25.80
2022-08-02T14:02:21.944Z,25.86
2022-08-02T14:04:48.629Z,25.93
2022-08-02T14:07:16.157Z,25.87
2022-08-02T14:09:43.671Z,25.85
2022-08-02T14:12:11.151Z,25.93
2022-08-02T14:14:38.303Z,25.92
2022-08-02T14:17:05.168Z,25.86
2022-08-02T14:19:31.943Z,25.67
2022-08-02T14:22:11.048Z,25.53
2022-08-02T14:24:40.131Z,25.38
2022-08-02T14:27:07.232Z,25.23
2022-08-02T14:29:34.144Z,25.14
2022-08-02T14:32:01.224Z,25.23
2022-08-02T14:34:28.727Z,25.35
2022-08-02T14:36:56.453Z,25.46
2022-08-02T14:39:23.253Z,25.57
2022-08-02T14:41:58.459Z,25.69
2022-08-02T14:44:28.456Z,25.74
2022-08-02T14:46:55.756Z,25.87
2022-08-02T14:49:25.087Z,25.87
2022-08-02T14:51:57.030Z,25.94
2022-08-02T14:54:30.692Z,26.00
2022-08-02T14:57:03.035Z,26.01
2022-08-02T14:59:30.433Z,25.99
2022-08-02T15:01:58.105Z,25.98
2022-08-02T15:04:25.206Z,26.01
2022-08-02T15:06:52.415Z,26.04
2022-08-02T15:09:19.680Z,26.15
2022-08-02T15:11:47.817Z,26.11
2022-08-02T15:14:25.361Z,26.04
2022-08-02T15:16:57.053Z,26.00
2022-08-02T15:19:28.672Z,26.06
2022-08-02T15:22:16.181Z,26.02
2022-08-02T15:24:44.088Z,26.09
2022-08-02T15:27:13.954Z,26.09
2022-08-02T15:29:42.100Z,26.15
2022-08-02T15:32:09.319Z,26.18
2022-08-02T15:34:36.259Z,26.10
2022-08-02T15:37:03.030Z,26.07
2022-08-02T15:39:30.264Z,26.09
2022-08-02T15:41:57.494Z,26.05
2022-08-02T15:44:25.010Z,26.02
2022-08-02T15:46:53.431Z,26.04
2022-08-02T15:49:23.637Z,26.04
2022-08-02T15:51:51.864Z,26.03
2022-08-02T15:54:18.818Z,26.00
2022-08-02T15:56:45.743Z,25.94
2022-08-02T15:59:12.426Z,25.99
2022-08-02T16:01:43.554Z,25.91
2022-08-02T16:04:13.628Z,25.88
2022-08-02T16:06:40.314Z,25.85
2022-08-02T16:09:07.033Z,25.86
2022-08-02T16:11:33.857Z,25.89
2022-08-02T16:14:00.631Z,25.86
2022-08-02T16:16:30.913Z,25.77
2022-08-02T16:18:58.035Z,25.71
2022-08-02T16:21:25.167Z,25.70
2022-08-02T16:24:01.759Z,25.67
2022-08-02T16:26:34.311Z,25.63
2022-08-02T16:29:02.427Z,25.59
2022-08-02T16:31:29.932Z,25.60
2022-08-02T16:33:57.487Z,25.58
2022-08-02T16:36:25.773Z,25.52
2022-08-02T16:38:53.795Z,25.51
2022-08-02T16:41:20.878Z,25.46
2022-08-02T16:43:47.706Z,25.36
2022-08-02T16:46:14.841Z,25.34
2022-08-02T16:48:42.312Z,25.30
2022-08-02T16:51:18.852Z,25.30
2022-08-02T16:54:00.015Z,25.25
2022-08-02T16:56:28.600Z,25.22
2022-08-02T16:58:58.751Z,25.15
2022-08-02T17:04:13.832Z,25.02
2022-08-02T17:06:40.564Z,24.94
2022-08-02T17:10:03.974Z,24.91
2022-08-02T17:12:01.835Z,24.83
2022-08-02T17:14:28.542Z,24.76
2022-08-02T17:16:55.167Z,24.67
2022-08-02T17:19:21.850Z,24.60
2022-08-02T17:21:48.623Z,24.57
2022-08-02T17:24:15.271Z,24.51
2022-08-02T17:26:42.247Z,24.48
2022-08-02T17:29:15.496Z,24.44
2022-08-02T17:32:04.835Z,24.39
2022-08-02T17:34:32.280Z,24.35
2022-08-02T17:37:00.234Z,24.31
2022-08-02T17:39:33.965Z,24.26
2022-08-02T17:42:04.577Z,24.21
2022-08-02T17:44:37.553Z,24.14
2022-08-02T17:47:11.568Z,24.09
2022-08-02T17:49:43.842Z,24.02
2022-08-02T17:52:47.753Z,23.94
2022-08-02T17:54:59.096Z,23.89
2022-08-02T17:57:55.243Z,23.83
2022-08-02T18:00:13.465Z,23.76
2022-08-02T18:02:41.930Z,23.70
2022-08-02T18:05:11.894Z,23.63
2022-08-02T18:07:51.928Z,23.56
2022-08-02T18:10:20.001Z,23.52
2022-08-02T18:12:47.205Z,23.48
2022-08-02T18:15:15.856Z,23.44
2022-08-02T18:17:42.587Z,23.43
2022-08-02T18:20:11.222Z,23.41
2022-08-02T18:22:39.779Z,23.39
2022-08-02T18:25:10.005Z,23.36
2022-08-02T18:27:38.994Z,23.29
2022-08-02T18:30:07.942Z,23.25
2022-08-02T18:33:53.774Z,23.21
2022-08-02T18:35:22.052Z,23.13
2022-08-02T18:37:57.182Z,23.08
2022-08-02T18:40:30.994Z,22.99
2022-08-02T18:42:57.754Z,22.82
2022-08-02T18:45:49.548Z,22.72
2022-08-02T18:48:12.621Z,22.63
2022-08-02T18:50:44.416Z,22.56
2022-08-02T18:53:13.630Z,22.50
2022-08-02T18:55:59.789Z,22.48
2022-08-02T18:58:27.107Z,22.46
2022-08-02T19:00:55.959Z,22.42
2022-08-02T19:03:22.674Z,22.41
2022-08-02T19:05:53.347Z,22.39
2022-08-02T19:08:25.514Z,22.36
2022-08-02T19:10:56.012Z,22.34
2022-08-02T19:13:23.770Z,22.30
2022-08-02T19:15:50.575Z,22.26
2022-08-02T19:18:17.243Z,22.25
2022-08-02T19:20:48.036Z,22.20
2022-08-02T19:23:15.350Z,22.14
2022-08-02T19:25:54.618Z,22.05
2022-08-02T19:28:26.032Z,21.96
2022-08-02T19:30:54.282Z,21.86
2022-08-02T19:33:54.700Z,21.80
2022-08-02T19:36:07.617Z,21.75
2022-08-02T19:38:35.207Z,21.73
2022-08-02T19:41:01.947Z,21.71
2022-08-02T19:44:23.106Z,21.65
2022-08-02T19:46:15.863Z,21.58
2022-08-02T19:48:42.970Z,21.49
2022-08-02T19:51:13.051Z,21.43
2022-08-02T19:53:47.230Z,21.40
2022-08-02T19:56:25.026Z,21.38
2022-08-02T19:58:54.262Z,21.42
2022-08-02T20:01:36.679Z,21.40
2022-08-02T20:04:07.719Z,21.42
2022-08-02T20:06:42.789Z,21.35
2022-08-02T20:09:21.001Z,21.29
2022-08-02T20:11:54.252Z,21.23
2022-08-02T20:14:26.536Z,21.19
2022-08-02T20:16:55.342Z,21.14
2022-08-02T20:19:23.556Z,21.09
2022-08-02T20:21:56.735Z,21.08
2022-08-02T20:24:27.418Z,21.07
2022-08-02T20:26:55.144Z,21.02
2022-08-02T20:29:44.649Z,20.98
2022-08-02T20:32:14.604Z,21.01
2022-08-02T20:34:41.841Z,21.01
2022-08-02T20:38:01.088Z,21.03
2022-08-02T20:39:55.338Z,21.07
2022-08-02T20:42:23.761Z,21.08
2022-08-02T20:44:54.613Z,20.91
2022-08-02T20:47:40.669Z,20.71
2022-08-02T20:50:30.445Z,20.65
2022-08-02T20:52:59.617Z,20.61
2022-08-02T20:55:27.223Z,20.61
2022-08-02T20:58:00.838Z,20.58
2022-08-02T21:00:28.867Z,20.55
2022-08-02T21:02:55.634Z,20.50
2022-08-02T21:05:43.268Z,20.51
2022-08-02T21:10:57.444Z,20.49
2022-08-02T21:13:26.410Z,20.52
2022-08-02T21:15:55.391Z,20.54
2022-08-02T21:21:14.735Z,20.45
2022-08-02T21:23:48.514Z,20.39
2022-08-02T21:26:25.741Z,20.36
2022-08-02T21:28:55.609Z,20.31
2022-08-02T21:31:22.475Z,20.32
2022-08-02T21:33:58.084Z,20.30
2022-08-02T21:36:31.063Z,20.22
2022-08-02T21:39:04.242Z,20.11
2022-08-02T21:41:39.658Z,20.09
2022-08-02T21:44:13.464Z,20.07
2022-08-02T21:46:43.047Z,20.11
2022-08-02T21:49:12.510Z,20.12
2022-08-02T21:51:40.253Z,20.08
2022-08-02T21:54:18.750Z,20.07
2022-08-02T21:59:38.244Z,20.03
2022-08-02T22:02:12.056Z,20.05
2022-08-02T22:04:38.681Z,20.05
2022-08-02T22:07:05.306Z,20.07
2022-08-02T22:09:43.017Z,20.01
2022-08-02T22:12:18.450Z,19.98
2022-08-02T22:14:53.880Z,19.95
2022-08-02T22:17:51.424Z,19.90
2022-08-02T22:20:12.271Z,19.89
2022-08-02T22:22:39.641Z,19.88
2022-08-02T22:25:10.243Z,19.88
2022-08-02T22:28:35.182Z,19.88
2022-08-02T22:30:35.351Z,19.88
2022-08-02T22:33:20.739Z,19.85
2022-08-02T22:35:47.590Z,19.80
2022-08-02T22:38:18.419Z,19.70
2022-08-02T22:40:47.114Z,19.66
2022-08-02T22:43:22.450Z,19.63
2022-08-02T22:45:50.857Z,19.63
2022-08-02T22:48:17.628Z,19.61
2022-08-02T22:50:44.558Z,19.59
2022-08-02T22:53:12.311Z,19.58
2022-08-02T22:55:41.788Z,19.55
2022-08-02T22:58:09.258Z,19.58
2022-08-02T22:58:36.011Z,25.09
2022-08-02T22:59:12.383Z,20.48
2022-08-02T22:59:12.892Z,20.53
2022-08-02T23:00:36.096Z,19.62
2022-08-02T23:03:03.087Z,19.60
2022-08-02T23:05:34.071Z,19.56
2022-08-02T23:08:00.943Z,19.49
2022-08-02T23:10:28.488Z,19.45
2022-08-02T23:12:58.971Z,19.43
2022-08-02T23:15:26.966Z,19.40
2022-08-02T23:18:12.759Z,19.34
2022-08-02T23:20:40.691Z,19.25
2022-08-02T23:23:11.559Z,19.15
2022-08-02T23:25:38.645Z,19.10
2022-08-02T23:28:05.483Z,19.12
2022-08-02T23:30:32.153Z,19.13
2022-08-02T23:32:58.839Z,19.12
2022-08-02T23:35:25.709Z,19.08
2022-08-02T23:38:00.456Z,19.07
2022-08-02T23:40:40.718Z,19.05
2022-08-02T23:43:13.995Z,19.06
2022-08-02T23:45:48.115Z,19.08
2022-08-02T23:48:14.911Z,19.09
2022-08-02T23:50:41.630Z,19.09
2022-08-02T23:53:08.495Z,19.07
2022-08-02T23:55:35.360Z,19.06
2022-08-02T23:58:02.096Z,19.06
